sensor_id;sensor_type;location;lat;lon;timestamp;pressure;altitude;pressure_sealevel;temperature;humidity
51829;BME280;37881;48.024;8.774;2023-01-01T00:02:22;94372.94;;;4.83;100.00
51829;BME280;37881;48.024;8.774;2023-01-01T00:04:49;94379.47;;;5.05;100.00
51829;BME280;37881;48.024;8.774;2023-01-01T00:07:16;94363.56;;;5.07;100.00
51829;BME280;37881;48.024;8.774;2023-01-01T00:09:43;94373.25;;;5.04;100.00
51829;BME280;37881;48.024;8.774;2023-01-01T00:12:30;94373.25;;;5.04;100.00
51829;BME280;37881;48.024;8.774;2023-01-01T00:14:57;94367.84;;;5.08;100.00
51829;BME280;37881;48.024;8.774;2023-01-01T00:17:24;94372.59;;;5.14;100.00
51829;BME280;37881;48.024;8.774;2023-01-01T00:19:51;94374.81;;;5.05;100.00
51829;BME280;37881;48.024;8.774;2023-01-01T00:22:17;94376.50;;;4.87;100.00
51829;BME280;37881;48.024;8.774;2023-01-01T00:25:05;94376.13;;;4.88;100.00
51829;BME280;37881;48.024;8.774;2023-01-01T00:27:32;94376.19;;;4.92;100.00
51829;BME280;37881;48.024;8.774;2023-01-01T00:29:58;94375.03;;;4.93;100.00
51829;BME280;37881;48.024;8.774;2023-01-01T00:32:25;94377.81;;;4.96;100.00
51829;BME280;37881;48.024;8.774;2023-01-01T00:34:52;94364.31;;;5.04;100.00
51829;BME280;37881;48.024;8.774;2023-01-01T00:37:19;94367.84;;;5.08;100.00
51829;BME280;37881;48.024;8.774;2023-01-01T00:39:45;94361.91;;;4.98;100.00
51829;BME280;37881;48.024;8.774;2023-01-01T00:42:12;94357.22;;;4.95;100.00
51829;BME280;37881;48.024;8.774;2023-01-01T00:44:39;94359.19;;;4.98;100.00
51829;BME280;37881;48.024;8.774;2023-01-01T00:47:05;94354.75;;;4.87;100.00
51829;BME280;37881;48.024;8.774;2023-01-01T00:49:32;94363.66;;;4.84;100.00
51829;BME280;37881;48.024;8.774;2023-01-01T00:51:59;94361.28;;;4.82;100.00
51829;BME280;37881;48.024;8.774;2023-01-01T00:54:25;94359.03;;;4.88;100.00
51829;BME280;37881;48.024;8.774;2023-01-01T00:56:52;94361.28;;;4.82;100.00
51829;BME280;37881;48.024;8.774;2023-01-01T00:59:19;94360.66;;;4.92;100.00
51829;BME280;37881;48.024;8.774;2023-01-01T01:01:53;94367.69;;;4.97;100.00
51829;BME280;37881;48.024;8.774;2023-01-01T01:04:20;94371.28;;;5.01;100.00
51829;BME280;37881;48.024;8.774;2023-01-01T01:06:47;94372.06;;;5.02;100.00
51829;BME280;37881;48.024;8.774;2023-01-01T01:09:14;94371.19;;;4.67;100.00
51829;BME280;37881;48.024;8.774;2023-01-01T01:11:41;94376.41;;;4.79;100.00
51829;BME280;37881;48.024;8.774;2023-01-01T01:14:07;94381.84;;;4.79;100.00
51829;BME280;37881;48.024;8.774;2023-01-01T01:16:34;94380.81;;;4.88;100.00
51829;BME280;37881;48.024;8.774;2023-01-01T01:19:03;94385.88;;;4.89;100.00
51829;BME280;37881;48.024;8.774;2023-01-01T01:21:32;94380.47;;;4.93;100.00
51829;BME280;37881;48.024;8.774;2023-01-01T01:24:00;94380.88;;;4.95;100.00
51829;BME280;37881;48.024;8.774;2023-01-01T01:26:30;94371.53;;;4.92;100.00
51829;BME280;37881;48.024;8.774;2023-01-01T01:28:57;94377.84;;;5.00;100.00
51829;BME280;37881;48.024;8.774;2023-01-01T01:31:28;94375.97;;;5.04;100.00
51829;BME280;37881;48.024;8.774;2023-01-01T01:33:55;94373.34;;;5.11;100.00
51829;BME280;37881;48.024;8.774;2023-01-01T01:36:23;94385.09;;;5.19;100.00
51829;BME280;37881;48.024;8.774;2023-01-01T01:38:50;94386.31;;;5.22;100.00
51829;BME280;37881;48.024;8.774;2023-01-01T01:41:20;94388.78;;;5.04;100.00
51829;BME280;37881;48.024;8.774;2023-01-01T01:43:56;94385.06;;;4.89;100.00
51829;BME280;37881;48.024;8.774;2023-01-01T01:46:36;94386.72;;;4.93;100.00
51829;BME280;37881;48.024;8.774;2023-01-01T01:49:13;94391.34;;;4.66;100.00
51829;BME280;37881;48.024;8.774;2023-01-01T01:51:42;94383.16;;;4.63;100.00
51829;BME280;37881;48.024;8.774;2023-01-01T01:54:13;94392.09;;;4.63;100.00
51829;BME280;37881;48.024;8.774;2023-01-01T01:56:48;94388.44;;;4.78;100.00
51829;BME280;37881;48.024;8.774;2023-01-01T01:59:18;94392.88;;;4.90;100.00
51829;BME280;37881;48.024;8.774;2023-01-01T02:01:46;94385.19;;;4.96;100.00
51829;BME280;37881;48.024;8.774;2023-01-01T02:04:13;94391.50;;;5.04;100.00
51829;BME280;37881;48.024;8.774;2023-01-01T02:06:39;94392.22;;;5.00;100.00
51829;BME280;37881;48.024;8.774;2023-01-01T02:09:07;94389.16;;;5.02;100.00
51829;BME280;37881;48.024;8.774;2023-01-01T02:11:34;94389.50;;;5.00;100.00
51829;BME280;37881;48.024;8.774;2023-01-01T02:14:01;94384.81;;;4.97;100.00
51829;BME280;37881;48.024;8.774;2023-01-01T02:19:07;94386.97;;;4.85;100.00
51829;BME280;37881;48.024;8.774;2023-01-01T02:22:06;94385.28;;;4.76;100.00
51829;BME280;37881;48.024;8.774;2023-01-01T02:24:35;94387.19;;;4.72;100.00
51829;BME280;37881;48.024;8.774;2023-01-01T02:27:27;94395.66;;;4.67;100.00
51829;BME280;37881;48.024;8.774;2023-01-01T02:30:03;94396.13;;;4.73;100.00
51829;BME280;37881;48.024;8.774;2023-01-01T02:32:44;94402.34;;;4.73;100.00
51829;BME280;37881;48.024;8.774;2023-01-01T02:35:34;94404.19;;;4.66;100.00
51829;BME280;37881;48.024;8.774;2023-01-01T02:41:02;94407.81;;;4.50;100.00
51829;BME280;37881;48.024;8.774;2023-01-01T02:43:31;94414.41;;;4.49;100.00
51829;BME280;37881;48.024;8.774;2023-01-01T02:45:57;94403.06;;;4.44;100.00
51829;BME280;37881;48.024;8.774;2023-01-01T02:48:41;94411.47;;;4.35;100.00
51829;BME280;37881;48.024;8.774;2023-01-01T02:56:56;94402.22;;;4.16;100.00
51829;BME280;37881;48.024;8.774;2023-01-01T03:08:51;94409.59;;;4.16;100.00
51829;BME280;37881;48.024;8.774;2023-01-01T03:11:22;94416.28;;;4.22;100.00
51829;BME280;37881;48.024;8.774;2023-01-01T03:16:39;94406.75;;;4.32;100.00
51829;BME280;37881;48.024;8.774;2023-01-01T03:19:22;94406.69;;;4.05;100.00
51829;BME280;37881;48.024;8.774;2023-01-01T03:26:49;94395.78;;;3.59;100.00
51829;BME280;37881;48.024;8.774;2023-01-01T03:29:20;94409.44;;;3.63;100.00
51829;BME280;37881;48.024;8.774;2023-01-01T03:31:49;94410.56;;;3.62;100.00
51829;BME280;37881;48.024;8.774;2023-01-01T03:34:22;94413.34;;;3.65;100.00
51829;BME280;37881;48.024;8.774;2023-01-01T03:36:54;94408.94;;;3.57;100.00
51829;BME280;37881;48.024;8.774;2023-01-01T03:39:28;94420.47;;;3.54;100.00
51829;BME280;37881;48.024;8.774;2023-01-01T03:44:54;94403.06;;;3.35;100.00
51829;BME280;37881;48.024;8.774;2023-01-01T03:47:24;94407.94;;;3.26;100.00
51829;BME280;37881;48.024;8.774;2023-01-01T03:49:51;94400.16;;;3.25;100.00
51829;BME280;37881;48.024;8.774;2023-01-01T04:00:24;94388.94;;;3.07;100.00
51829;BME280;37881;48.024;8.774;2023-01-01T04:02:55;94381.03;;;2.98;100.00
51829;BME280;37881;48.024;8.774;2023-01-01T04:05:23;94382.13;;;2.42;100.00
51829;BME280;37881;48.024;8.774;2023-01-01T04:07:51;94377.63;;;2.66;100.00
51829;BME280;37881;48.024;8.774;2023-01-01T04:10:19;94385.75;;;2.66;100.00
51829;BME280;37881;48.024;8.774;2023-01-01T04:12:54;94375.69;;;2.66;100.00
51829;BME280;37881;48.024;8.774;2023-01-01T04:15:24;94385.16;;;2.56;100.00
51829;BME280;37881;48.024;8.774;2023-01-01T04:17:52;94391.94;;;2.66;100.00
51829;BME280;37881;48.024;8.774;2023-01-01T04:20:19;94391.59;;;2.68;100.00
51829;BME280;37881;48.024;8.774;2023-01-01T04:22:46;94385.03;;;2.69;100.00
51829;BME280;37881;48.024;8.774;2023-01-01T04:25:13;94394.19;;;2.80;100.00
51829;BME280;37881;48.024;8.774;2023-01-01T04:27:40;94400.19;;;2.89;100.00
51829;BME280;37881;48.024;8.774;2023-01-01T04:30:10;94404.13;;;2.92;100.00
51829;BME280;37881;48.024;8.774;2023-01-01T04:32:38;94415.66;;;2.89;100.00
51829;BME280;37881;48.024;8.774;2023-01-01T04:35:05;94406.38;;;2.70;100.00
51829;BME280;37881;48.024;8.774;2023-01-01T04:37:35;94408.78;;;2.75;100.00
51829;BME280;37881;48.024;8.774;2023-01-01T04:40:03;94409.56;;;2.92;100.00
51829;BME280;37881;48.024;8.774;2023-01-01T04:42:30;94412.19;;;3.08;100.00
51829;BME280;37881;48.024;8.774;2023-01-01T04:44:57;94413.84;;;3.12;100.00
51829;BME280;37881;48.024;8.774;2023-01-01T04:47:23;94409.94;;;3.29;100.00
51829;BME280;37881;48.024;8.774;2023-01-01T04:49:52;94409.00;;;3.41;100.00
51829;BME280;37881;48.024;8.774;2023-01-01T04:52:20;94407.22;;;3.49;100.00
51829;BME280;37881;48.024;8.774;2023-01-01T04:54:47;94419.69;;;3.34;100.00
51829;BME280;37881;48.024;8.774;2023-01-01T04:57:13;94424.56;;;3.25;100.00
51829;BME280;37881;48.024;8.774;2023-01-01T04:59:40;94428.25;;;3.36;100.00
51829;BME280;37881;48.024;8.774;2023-01-01T05:02:07;94410.59;;;3.42;100.00
51829;BME280;37881;48.024;8.774;2023-01-01T05:04:34;94410.59;;;3.42;100.00
51829;BME280;37881;48.024;8.774;2023-01-01T05:07:00;94427.28;;;3.44;100.00
51829;BME280;37881;48.024;8.774;2023-01-01T05:09:27;94422.84;;;3.55;100.00
51829;BME280;37881;48.024;8.774;2023-01-01T05:11:54;94428.69;;;3.57;100.00
51829;BME280;37881;48.024;8.774;2023-01-01T05:14:21;94428.84;;;3.65;100.00
51829;BME280;37881;48.024;8.774;2023-01-01T05:16:48;94421.69;;;3.76;100.00
51829;BME280;37881;48.024;8.774;2023-01-01T05:19:15;94426.91;;;3.85;100.00
51829;BME280;37881;48.024;8.774;2023-01-01T05:21:41;94436.50;;;3.78;100.00
51829;BME280;37881;48.024;8.774;2023-01-01T05:24:09;94432.41;;;3.69;100.00
51829;BME280;37881;48.024;8.774;2023-01-01T05:26:38;94432.13;;;3.74;100.00
51829;BME280;37881;48.024;8.774;2023-01-01T05:29:06;94438.53;;;3.85;100.00
51829;BME280;37881;48.024;8.774;2023-01-01T05:31:41;94428.34;;;3.78;100.00
51829;BME280;37881;48.024;8.774;2023-01-01T05:34:08;94433.69;;;3.75;100.00
51829;BME280;37881;48.024;8.774;2023-01-01T05:36:36;94439.72;;;3.65;100.00
51829;BME280;37881;48.024;8.774;2023-01-01T05:39:09;94439.44;;;3.50;100.00
51829;BME280;37881;48.024;8.774;2023-01-01T05:41:38;94440.88;;;3.44;100.00
51829;BME280;37881;48.024;8.774;2023-01-01T05:44:06;94440.47;;;3.46;100.00
51829;BME280;37881;48.024;8.774;2023-01-01T05:46:35;94448.94;;;3.40;100.00
51829;BME280;37881;48.024;8.774;2023-01-01T05:49:02;94449.06;;;3.48;100.00
51829;BME280;37881;48.024;8.774;2023-01-01T05:51:29;94446.84;;;3.53;100.00
51829;BME280;37881;48.024;8.774;2023-01-01T05:53:57;94451.50;;;3.53;100.00
51829;BME280;37881;48.024;8.774;2023-01-01T05:56:24;94455.19;;;3.64;100.00
51829;BME280;37881;48.024;8.774;2023-01-01T05:58:52;94453.13;;;3.77;100.00
51829;BME280;37881;48.024;8.774;2023-01-01T06:01:21;94462.41;;;3.76;100.00
51829;BME280;37881;48.024;8.774;2023-01-01T06:03:49;94464.78;;;3.38;100.00
51829;BME280;37881;48.024;8.774;2023-01-01T06:06:18;94463.63;;;3.20;100.00
51829;BME280;37881;48.024;8.774;2023-01-01T06:08:59;94464.88;;;3.07;100.00
51829;BME280;37881;48.024;8.774;2023-01-01T06:11:26;94464.22;;;3.13;100.00
51829;BME280;37881;48.024;8.774;2023-01-01T06:13:55;94471.13;;;3.27;100.00
51829;BME280;37881;48.024;8.774;2023-01-01T06:16:21;94476.88;;;3.25;100.00
51829;BME280;37881;48.024;8.774;2023-01-01T06:18:48;94472.97;;;3.23;100.00
51829;BME280;37881;48.024;8.774;2023-01-01T06:21:21;94475.75;;;3.26;100.00
51829;BME280;37881;48.024;8.774;2023-01-01T06:23:48;94476.53;;;3.27;100.00
51829;BME280;37881;48.024;8.774;2023-01-01T06:26:17;94472.41;;;3.33;100.00
51829;BME280;37881;48.024;8.774;2023-01-01T06:28:45;94477.81;;;3.33;100.00
51829;BME280;37881;48.024;8.774;2023-01-01T06:31:14;94479.81;;;3.36;100.00
51829;BME280;37881;48.024;8.774;2023-01-01T06:33:42;94480.06;;;3.47;100.00
51829;BME280;37881;48.024;8.774;2023-01-01T06:36:11;94480.97;;;3.35;100.00
51829;BME280;37881;48.024;8.774;2023-01-01T06:38:43;94487.94;;;3.36;100.00
51829;BME280;37881;48.024;8.774;2023-01-01T06:41:13;94490.41;;;3.41;100.00
51829;BME280;37881;48.024;8.774;2023-01-01T06:43:41;94487.91;;;3.32;100.00
51829;BME280;37881;48.024;8.774;2023-01-01T06:48:47;94487.22;;;3.19;100.00
51829;BME280;37881;48.024;8.774;2023-01-01T06:51:19;94496.66;;;3.26;100.00
51829;BME280;37881;48.024;8.774;2023-01-01T06:53:48;94487.00;;;3.09;100.00
51829;BME280;37881;48.024;8.774;2023-01-01T06:56:16;94493.94;;;3.26;100.00
51829;BME280;37881;48.024;8.774;2023-01-01T06:58:43;94490.31;;;3.37;100.00
51829;BME280;37881;48.024;8.774;2023-01-01T07:01:13;94496.69;;;3.45;100.00
51829;BME280;37881;48.024;8.774;2023-01-01T07:03:41;94498.69;;;3.48;100.00
51829;BME280;37881;48.024;8.774;2023-01-01T07:06:09;94501.25;;;3.41;100.00
51829;BME280;37881;48.024;8.774;2023-01-01T07:08:36;94498.69;;;3.48;100.00
51829;BME280;37881;48.024;8.774;2023-01-01T07:11:03;94499.34;;;3.61;100.00
51829;BME280;37881;48.024;8.774;2023-01-01T07:13:30;94496.09;;;3.36;100.00
51829;BME280;37881;48.024;8.774;2023-01-01T07:15:57;94497.13;;;3.47;100.00
51829;BME280;37881;48.024;8.774;2023-01-01T07:18:24;94496.94;;;3.40;100.00
51829;BME280;37881;48.024;8.774;2023-01-01T07:20:53;94502.31;;;3.36;100.00
51829;BME280;37881;48.024;8.774;2023-01-01T07:23:20;94501.25;;;3.06;100.00
51829;BME280;37881;48.024;8.774;2023-01-01T07:25:48;94502.63;;;3.15;100.00
51829;BME280;37881;48.024;8.774;2023-01-01T07:28:15;94508.66;;;3.25;100.00
51829;BME280;37881;48.024;8.774;2023-01-01T07:30:41;94507.75;;;3.36;100.00
51829;BME280;37881;48.024;8.774;2023-01-01T07:33:13;94514.03;;;3.40;100.00
51829;BME280;37881;48.024;8.774;2023-01-01T07:35:41;94514.03;;;3.60;100.00
51829;BME280;37881;48.024;8.774;2023-01-01T07:38:07;94508.53;;;3.76;100.00
51829;BME280;37881;48.024;8.774;2023-01-01T07:40:34;94511.25;;;3.95;100.00
51829;BME280;37881;48.024;8.774;2023-01-01T07:43:01;94520.25;;;3.99;100.00
51829;BME280;37881;48.024;8.774;2023-01-01T07:45:28;94517.97;;;4.02;100.00
51829;BME280;37881;48.024;8.774;2023-01-01T07:47:56;94500.13;;;4.00;100.00
51829;BME280;37881;48.024;8.774;2023-01-01T07:50:26;94479.75;;;3.91;100.00
51829;BME280;37881;48.024;8.774;2023-01-01T07:52:53;94487.63;;;3.76;100.00
51829;BME280;37881;48.024;8.774;2023-01-01T07:55:20;94504.47;;;3.86;100.00
51829;BME280;37881;48.024;8.774;2023-01-01T07:57:47;94502.97;;;4.08;100.00
51829;BME280;37881;48.024;8.774;2023-01-01T08:00:16;94499.06;;;4.28;100.00
51829;BME280;37881;48.024;8.774;2023-01-01T08:02:43;94529.22;;;4.66;100.00
51829;BME280;37881;48.024;8.774;2023-01-01T08:05:10;94515.25;;;4.44;100.00
51829;BME280;37881;48.024;8.774;2023-01-01T08:07:37;94510.97;;;4.66;100.00
51829;BME280;37881;48.024;8.774;2023-01-01T08:10:05;94510.06;;;4.82;100.00
51829;BME280;37881;48.024;8.774;2023-01-01T08:12:33;94518.38;;;5.15;100.00
51829;BME280;37881;48.024;8.774;2023-01-01T08:14:59;94520.47;;;4.99;100.00
51829;BME280;37881;48.024;8.774;2023-01-01T08:17:26;94513.81;;;5.80;100.00
51829;BME280;37881;48.024;8.774;2023-01-01T08:19:53;94516.38;;;5.39;100.00
51829;BME280;37881;48.024;8.774;2023-01-01T08:22:19;94520.84;;;6.49;100.00
51829;BME280;37881;48.024;8.774;2023-01-01T08:24:47;94519.53;;;7.28;100.00
51829;BME280;37881;48.024;8.774;2023-01-01T08:27:14;94513.25;;;7.83;100.00
51829;BME280;37881;48.024;8.774;2023-01-01T08:29:42;94516.25;;;8.55;100.00
51829;BME280;37881;48.024;8.774;2023-01-01T08:32:10;94505.72;;;8.68;100.00
51829;BME280;37881;48.024;8.774;2023-01-01T08:34:37;94502.56;;;9.63;100.00
51829;BME280;37881;48.024;8.774;2023-01-01T08:37:04;94507.06;;;10.23;100.00
51829;BME280;37881;48.024;8.774;2023-01-01T08:39:31;94507.31;;;11.17;100.00
51829;BME280;37881;48.024;8.774;2023-01-01T08:41:58;94501.34;;;11.67;100.00
51829;BME280;37881;48.024;8.774;2023-01-01T08:44:25;94502.34;;;11.43;93.42
51829;BME280;37881;48.024;8.774;2023-01-01T08:46:51;94502.06;;;10.81;97.84
51829;BME280;37881;48.024;8.774;2023-01-01T08:49:18;94500.69;;;10.44;99.84
51829;BME280;37881;48.024;8.774;2023-01-01T08:51:45;94494.47;;;10.40;100.00
51829;BME280;37881;48.024;8.774;2023-01-01T08:54:12;94507.19;;;10.79;99.65
51829;BME280;37881;48.024;8.774;2023-01-01T08:56:38;94516.38;;;10.47;99.42
51829;BME280;37881;48.024;8.774;2023-01-01T08:59:05;94512.13;;;10.32;95.59
51829;BME280;37881;48.024;8.774;2023-01-01T09:01:32;94513.47;;;9.77;96.50
51829;BME280;37881;48.024;8.774;2023-01-01T09:03:59;94515.59;;;11.06;98.00
51829;BME280;37881;48.024;8.774;2023-01-01T09:06:25;94513.06;;;10.77;97.87
51829;BME280;37881;48.024;8.774;2023-01-01T09:08:52;94514.09;;;10.28;96.66
51829;BME280;37881;48.024;8.774;2023-01-01T09:11:25;94521.22;;;10.14;99.20
51829;BME280;37881;48.024;8.774;2023-01-01T09:13:53;94523.75;;;10.65;94.97
51829;BME280;37881;48.024;8.774;2023-01-01T09:16:20;94524.53;;;10.65;97.64
51829;BME280;37881;48.024;8.774;2023-01-01T09:18:47;94533.56;;;12.08;90.85
51829;BME280;37881;48.024;8.774;2023-01-01T09:21:14;94527.25;;;12.42;87.66
51829;BME280;37881;48.024;8.774;2023-01-01T09:23:41;94536.09;;;12.26;87.08
51829;BME280;37881;48.024;8.774;2023-01-01T09:26:09;94532.59;;;14.29;86.15
51829;BME280;37881;48.024;8.774;2023-01-01T09:28:37;94543.06;;;15.63;76.52
51829;BME280;37881;48.024;8.774;2023-01-01T09:31:04;94536.25;;;15.68;73.70
51829;BME280;37881;48.024;8.774;2023-01-01T09:33:34;94539.00;;;15.35;72.21
51829;BME280;37881;48.024;8.774;2023-01-01T09:38:49;94538.88;;;17.43;62.29
51829;BME280;37881;48.024;8.774;2023-01-01T09:41:19;94540.38;;;17.95;61.10
51829;BME280;37881;48.024;8.774;2023-01-01T09:46:38;94534.09;;;17.18;61.52
51829;BME280;37881;48.024;8.774;2023-01-01T09:49:17;94526.13;;;17.46;59.76
51829;BME280;37881;48.024;8.774;2023-01-01T09:51:52;94522.91;;;19.27;57.38
51829;BME280;37881;48.024;8.774;2023-01-01T09:54:32;94521.22;;;18.45;55.00
51829;BME280;37881;48.024;8.774;2023-01-01T09:57:02;94522.41;;;19.60;52.54
51829;BME280;37881;48.024;8.774;2023-01-01T09:59:32;94514.16;;;20.80;50.73
51829;BME280;37881;48.024;8.774;2023-01-01T10:10:40;94512.44;;;19.00;51.09
51829;BME280;37881;48.024;8.774;2023-01-01T10:13:35;94506.28;;;20.05;49.50
51829;BME280;37881;48.024;8.774;2023-01-01T10:16:10;94504.06;;;21.34;46.88
51829;BME280;37881;48.024;8.774;2023-01-01T10:18:40;94501.31;;;20.83;47.89
51829;BME280;37881;48.024;8.774;2023-01-01T10:21:16;94492.03;;;20.67;46.82
51829;BME280;37881;48.024;8.774;2023-01-01T10:23:54;94496.22;;;20.07;48.77
51829;BME280;37881;48.024;8.774;2023-01-01T10:26:28;94487.16;;;20.95;46.87
51829;BME280;37881;48.024;8.774;2023-01-01T10:28:59;94478.84;;;21.29;46.16
51829;BME280;37881;48.024;8.774;2023-01-01T10:34:20;94472.38;;;20.52;46.95
51829;BME280;37881;48.024;8.774;2023-01-01T10:36:51;94479.31;;;20.75;47.67
51829;BME280;37881;48.024;8.774;2023-01-01T10:39:19;94478.31;;;21.40;45.36
51829;BME280;37881;48.024;8.774;2023-01-01T10:41:47;94486.00;;;20.41;46.07
51829;BME280;37881;48.024;8.774;2023-01-01T10:44:16;94482.13;;;20.39;47.33
51829;BME280;37881;48.024;8.774;2023-01-01T10:46:48;94480.19;;;21.33;44.67
51829;BME280;37881;48.024;8.774;2023-01-01T10:49:17;94468.66;;;20.19;46.86
51829;BME280;37881;48.024;8.774;2023-01-01T10:51:49;94469.13;;;19.89;48.25
51829;BME280;37881;48.024;8.774;2023-01-01T10:54:34;94466.19;;;20.21;47.62
51829;BME280;37881;48.024;8.774;2023-01-01T10:57:13;94471.88;;;20.72;46.78
51829;BME280;37881;48.024;8.774;2023-01-01T10:59:42;94473.13;;;20.44;47.11
51829;BME280;37881;48.024;8.774;2023-01-01T11:02:21;94478.56;;;20.38;46.85
51829;BME280;37881;48.024;8.774;2023-01-01T11:04:51;94477.28;;;20.76;46.15
51829;BME280;37881;48.024;8.774;2023-01-01T11:07:30;94479.50;;;20.35;46.36
51829;BME280;37881;48.024;8.774;2023-01-01T11:10:02;94477.19;;;21.13;45.62
51829;BME280;37881;48.024;8.774;2023-01-01T11:12:35;94477.66;;;18.95;48.52
51829;BME280;37881;48.024;8.774;2023-01-01T11:15:36;94474.28;;;18.47;50.91
51829;BME280;37881;48.024;8.774;2023-01-01T11:18:12;94465.34;;;19.06;49.59
51829;BME280;37881;48.024;8.774;2023-01-01T11:20:40;94463.56;;;18.90;49.71
51829;BME280;37881;48.024;8.774;2023-01-01T11:23:38;94458.75;;;17.80;51.97
51829;BME280;37881;48.024;8.774;2023-01-01T11:28:59;94450.69;;;19.73;48.72
51829;BME280;37881;48.024;8.774;2023-01-01T11:31:35;94449.97;;;19.42;48.81
51829;BME280;37881;48.024;8.774;2023-01-01T11:34:03;94440.06;;;18.82;49.07
51829;BME280;37881;48.024;8.774;2023-01-01T11:36:37;94434.34;;;19.35;48.36
51829;BME280;37881;48.024;8.774;2023-01-01T11:41:44;94431.66;;;20.00;47.46
51829;BME280;37881;48.024;8.774;2023-01-01T11:44:22;94428.47;;;19.24;48.21
51829;BME280;37881;48.024;8.774;2023-01-01T11:46:51;94428.06;;;19.03;49.04
51829;BME280;37881;48.024;8.774;2023-01-01T11:49:22;94428.09;;;18.72;49.43
51829;BME280;37881;48.024;8.774;2023-01-01T11:51:51;94423.38;;;19.41;48.45
51829;BME280;37881;48.024;8.774;2023-01-01T11:57:03;94421.59;;;19.06;48.86
51829;BME280;37881;48.024;8.774;2023-01-01T11:59:44;94413.34;;;18.62;50.06
51829;BME280;37881;48.024;8.774;2023-01-01T12:02:29;94415.47;;;18.05;51.33
51829;BME280;37881;48.024;8.774;2023-01-01T12:05:25;94407.00;;;17.86;52.80
51829;BME280;37881;48.024;8.774;2023-01-01T12:08:00;94405.31;;;17.54;52.51
51829;BME280;37881;48.024;8.774;2023-01-01T12:10:45;94405.72;;;18.00;52.37
51829;BME280;37881;48.024;8.774;2023-01-01T12:13:18;94396.03;;;18.05;52.29
51829;BME280;37881;48.024;8.774;2023-01-01T12:15:55;94397.50;;;19.12;49.80
51829;BME280;37881;48.024;8.774;2023-01-01T12:18:40;94392.06;;;18.68;51.07
51829;BME280;37881;48.024;8.774;2023-01-01T12:21:16;94393.84;;;17.30;53.59
51829;BME280;37881;48.024;8.774;2023-01-01T12:23:44;94390.78;;;17.15;54.40
51829;BME280;37881;48.024;8.774;2023-01-01T12:26:23;94386.47;;;15.82;58.31
51829;BME280;37881;48.024;8.774;2023-01-01T12:37:15;94379.22;;;13.68;69.70
51829;BME280;37881;48.024;8.774;2023-01-01T12:53:52;94367.13;;;13.82;72.19
51829;BME280;37881;48.024;8.774;2023-01-01T12:56:45;94367.84;;;13.86;71.83
51829;BME280;37881;48.024;8.774;2023-01-01T12:59:29;94370.88;;;13.51;73.21
51829;BME280;37881;48.024;8.774;2023-01-01T13:01:59;94376.34;;;13.55;71.92
51829;BME280;37881;48.024;8.774;2023-01-01T13:04:28;94374.78;;;13.54;72.57
51829;BME280;37881;48.024;8.774;2023-01-01T13:06:59;94363.44;;;13.28;72.94
51829;BME280;37881;48.024;8.774;2023-01-01T13:09:39;94359.44;;;13.09;73.21
51829;BME280;37881;48.024;8.774;2023-01-01T13:12:13;94348.69;;;13.15;73.42
51829;BME280;37881;48.024;8.774;2023-01-01T13:14:43;94345.94;;;13.38;73.07
51829;BME280;37881;48.024;8.774;2023-01-01T13:19:56;94352.09;;;13.23;73.28
51829;BME280;37881;48.024;8.774;2023-01-01T13:33:32;94353.06;;;13.36;73.05
51829;BME280;37881;48.024;8.774;2023-01-01T13:38:54;94335.03;;;13.31;73.16
51829;BME280;37881;48.024;8.774;2023-01-01T13:44:11;94317.25;;;13.12;73.78
51829;BME280;37881;48.024;8.774;2023-01-01T13:55:36;94323.59;;;13.33;72.69
51829;BME280;37881;48.024;8.774;2023-01-01T14:00:54;94326.34;;;13.09;73.14
51829;BME280;37881;48.024;8.774;2023-01-01T14:03:26;94317.63;;;13.14;72.92
51829;BME280;37881;48.024;8.774;2023-01-01T14:05:56;94320.38;;;13.14;73.09
51829;BME280;37881;48.024;8.774;2023-01-01T14:08:32;94330.34;;;13.28;73.36
51829;BME280;37881;48.024;8.774;2023-01-01T14:11:02;94328.69;;;13.11;73.57
51829;BME280;37881;48.024;8.774;2023-01-01T14:13:37;94332.63;;;13.10;73.36
51829;BME280;37881;48.024;8.774;2023-01-01T14:16:06;94331.09;;;13.09;73.21
51829;BME280;37881;48.024;8.774;2023-01-01T14:18:45;94336.63;;;13.09;73.09
51829;BME280;37881;48.024;8.774;2023-01-01T14:21:18;94335.03;;;13.08;72.82
51829;BME280;37881;48.024;8.774;2023-01-01T14:23:49;94327.56;;;13.08;73.19
51829;BME280;37881;48.024;8.774;2023-01-01T14:26:21;94333.97;;;13.02;73.41
51829;BME280;37881;48.024;8.774;2023-01-01T14:28:52;94337.13;;;12.80;74.21
51829;BME280;37881;48.024;8.774;2023-01-01T14:31:23;94344.47;;;12.87;74.35
51829;BME280;37881;48.024;8.774;2023-01-01T14:33:52;94347.34;;;12.79;74.74
51829;BME280;37881;48.024;8.774;2023-01-01T14:38:47;94350.16;;;12.52;75.44
51829;BME280;37881;48.024;8.774;2023-01-01T14:43:45;94358.63;;;12.38;76.23
51829;BME280;37881;48.024;8.774;2023-01-01T14:46:15;94351.41;;;12.21;76.95
51829;BME280;37881;48.024;8.774;2023-01-01T14:48:45;94354.31;;;12.10;77.59
51829;BME280;37881;48.024;8.774;2023-01-01T14:51:24;94357.13;;;12.06;77.91
51829;BME280;37881;48.024;8.774;2023-01-01T14:53:55;94352.38;;;12.07;77.85
51829;BME280;37881;48.024;8.774;2023-01-01T14:56:26;94358.38;;;12.02;78.12
51829;BME280;37881;48.024;8.774;2023-01-01T14:59:14;94359.72;;;11.86;78.73
51829;BME280;37881;48.024;8.774;2023-01-01T15:01:43;94359.78;;;11.79;79.53
51829;BME280;37881;48.024;8.774;2023-01-01T15:04:22;94365.34;;;11.75;79.82
51829;BME280;37881;48.024;8.774;2023-01-01T15:06:58;94367.03;;;11.66;80.30
51829;BME280;37881;48.024;8.774;2023-01-01T15:09:26;94367.13;;;11.58;80.84
51829;BME280;37881;48.024;8.774;2023-01-01T15:11:55;94367.28;;;11.44;82.01
51829;BME280;37881;48.024;8.774;2023-01-01T15:17:02;94371.47;;;11.22;83.58
51829;BME280;37881;48.024;8.774;2023-01-01T15:19:29;94367.63;;;11.12;84.70
51829;BME280;37881;48.024;8.774;2023-01-01T15:21:57;94371.31;;;10.94;85.54
51829;BME280;37881;48.024;8.774;2023-01-01T15:24:24;94370.53;;;10.97;85.58
51829;BME280;37881;48.024;8.774;2023-01-01T15:26:57;94378.78;;;10.94;86.01